createdAt,value
2023-01-07T00:01:42.688Z,100976.16
2023-01-07T00:04:13.028Z,100970.09
2023-01-07T00:06:43.960Z,100970.44
2023-01-07T00:09:14.072Z,100959.78
2023-01-07T00:11:42.616Z,100965.94
2023-01-07T00:14:14.040Z,100958.78
2023-01-07T00:16:42.190Z,100954.19
2023-01-07T00:19:13.988Z,100956.41
2023-01-07T00:21:43.177Z,100949.00
2023-01-07T00:24:12.498Z,100943.28
2023-01-07T00:26:41.488Z,100929.88
2023-01-07T00:29:09.779Z,100932.22
2023-01-07T00:31:39.938Z,100927.47
2023-01-07T00:34:09.151Z,100928.78
2023-01-07T00:36:39.754Z,100919.47
2023-01-07T00:39:11.981Z,100919.25
2023-01-07T00:41:39.867Z,100907.88
2023-01-07T00:44:08.776Z,100896.41
2023-01-07T00:46:36.594Z,100897.75
2023-01-07T00:49:04.405Z,100893.44
2023-01-07T00:51:32.102Z,100885.41
2023-01-07T00:53:59.883Z,100881.63
2023-01-07T00:56:29.094Z,100876.41
2023-01-07T00:58:56.810Z,100863.63
2023-01-07T01:01:24.693Z,100857.25
2023-01-07T01:03:52.670Z,100853.97
2023-01-07T01:06:20.393Z,100837.38
2023-01-07T01:08:48.611Z,100833.41
2023-01-07T01:11:17.706Z,100837.13
2023-01-07T01:13:47.262Z,100821.41
2023-01-07T01:16:18.702Z,100819.88
2023-01-07T01:18:47.171Z,100818.56
2023-01-07T01:21:17.231Z,100809.94
2023-01-07T01:23:45.415Z,100805.09
2023-01-07T01:26:16.019Z,100799.56
2023-01-07T01:28:44.720Z,100788.75
2023-01-07T01:31:13.998Z,100787.97
2023-01-07T01:33:41.855Z,100777.72
2023-01-07T01:36:13.173Z,100767.41
2023-01-07T01:38:41.520Z,100757.00
2023-01-07T01:41:09.299Z,100757.16
2023-01-07T01:43:39.581Z,100750.03
2023-01-07T01:46:13.515Z,100750.84
2023-01-07T01:48:48.919Z,100746.97
2023-01-07T01:51:22.269Z,100761.72
2023-01-07T01:53:50.871Z,100763.53
2023-01-07T01:56:23.664Z,100766.13
2023-01-07T01:58:57.678Z,100760.50
2023-01-07T02:01:25.958Z,100759.81
2023-01-07T02:03:57.600Z,100770.53
2023-01-07T02:06:27.431Z,100760.03
2023-01-07T02:08:55.245Z,100762.06
2023-01-07T02:11:34.163Z,100755.81
2023-01-07T02:14:17.972Z,100756.50
2023-01-07T02:16:52.956Z,100756.19
2023-01-07T02:19:58.848Z,100749.72
2023-01-07T02:22:50.507Z,100741.25
2023-01-07T02:25:43.228Z,100744.44
2023-01-07T02:28:36.230Z,100746.88
2023-01-07T02:31:36.982Z,100734.78
2023-01-07T02:34:13.959Z,100735.97
2023-01-07T02:36:51.080Z,100724.50
2023-01-07T02:39:37.116Z,100727.50
2023-01-07T02:42:11.344Z,100723.38
2023-01-07T02:44:43.555Z,100728.91
2023-01-07T02:47:17.370Z,100715.41
2023-01-07T02:49:48.543Z,100712.50
2023-01-07T02:52:19.520Z,100702.66
2023-01-07T02:54:52.915Z,100706.31
2023-01-07T02:57:34.142Z,100694.75
2023-01-07T03:00:15.434Z,100703.22
2023-01-07T03:03:07.500Z,100685.53
2023-01-07T03:05:45.965Z,100683.53
2023-01-07T03:08:29.710Z,100679.31
2023-01-07T03:10:59.859Z,100675.72
2023-01-07T03:13:34.744Z,100662.41
2023-01-07T03:16:06.758Z,100656.03
2023-01-07T03:18:39.031Z,100652.22
2023-01-07T03:21:13.619Z,100631.53
2023-01-07T03:23:56.470Z,100626.09
2023-01-07T03:26:27.939Z,100622.31
2023-01-07T03:28:59.840Z,100622.81
2023-01-07T03:31:29.152Z,100620.25
2023-01-07T03:34:02.812Z,100610.47
2023-01-07T03:36:37.066Z,100610.91
2023-01-07T03:39:07.600Z,100602.41
2023-01-07T03:41:52.643Z,100605.16
2023-01-07T03:44:20.435Z,100601.63
2023-01-07T03:46:48.487Z,100599.94
2023-01-07T03:49:16.283Z,100599.19
2023-01-07T03:51:46.630Z,100602.47
2023-01-07T03:54:15.078Z,100585.19
2023-01-07T03:56:42.901Z,100581.69
2023-01-07T03:59:10.890Z,100571.19
2023-01-07T04:01:39.272Z,100569.28
2023-01-07T04:04:07.462Z,100567.56
2023-01-07T04:06:35.258Z,100560.03
2023-01-07T04:09:04.848Z,100551.41
2023-01-07T04:11:32.646Z,100543.91
2023-01-07T04:14:00.913Z,100541.59
2023-01-07T04:16:28.736Z,100543.50
2023-01-07T04:18:56.835Z,100536.47
2023-01-07T04:21:24.811Z,100535.19
2023-01-07T04:23:52.631Z,100515.22
2023-01-07T04:26:21.733Z,100509.88
2023-01-07T04:28:49.539Z,100506.00
2023-01-07T04:31:17.246Z,100498.84
2023-01-07T04:33:45.161Z,100496.94
2023-01-07T04:36:13.241Z,100495.03
2023-01-07T04:38:41.018Z,100488.50
2023-01-07T04:41:08.794Z,100483.88
2023-01-07T04:43:37.903Z,100475.84
2023-01-07T04:46:05.882Z,100466.59
2023-01-07T04:48:33.771Z,100471.78
2023-01-07T04:51:01.472Z,100469.97
2023-01-07T04:53:29.222Z,100469.97
2023-01-07T04:55:57.042Z,100464.69
2023-01-07T04:58:24.835Z,100464.69
2023-01-07T05:00:56.560Z,100443.41
2023-01-07T05:03:24.341Z,100440.34
2023-01-07T05:05:52.111Z,100437.38
2023-01-07T05:08:19.895Z,100450.75
2023-01-07T05:10:49.812Z,100441.44
2023-01-07T05:13:18.777Z,100440.50
2023-01-07T05:15:46.949Z,100439.88
2023-01-07T05:18:16.459Z,100427.28
2023-01-07T05:20:44.278Z,100420.25
2023-01-07T05:23:12.074Z,100409.88
2023-01-07T05:25:39.785Z,100407.47
2023-01-07T05:28:07.594Z,100405.59
2023-01-07T05:30:35.373Z,100410.22
2023-01-07T05:33:03.205Z,100396.06
2023-01-07T05:35:32.267Z,100396.47
2023-01-07T05:38:00.066Z,100395.31
2023-01-07T05:40:27.883Z,100382.00
2023-01-07T05:42:55.627Z,100376.28
2023-01-07T05:45:23.361Z,100373.94
2023-01-07T05:47:51.136Z,100373.38
2023-01-07T05:50:18.925Z,100365.19
2023-01-07T05:52:48.008Z,100358.28
2023-01-07T05:55:15.945Z,100362.69
2023-01-07T05:57:43.712Z,100355.50
2023-01-07T06:00:12.392Z,100344.56
2023-01-07T06:02:40.180Z,100338.25
2023-01-07T06:05:09.352Z,100332.59
2023-01-07T06:07:37.356Z,100319.75
2023-01-07T06:10:07.478Z,100313.84
2023-01-07T06:12:35.262Z,100312.56
2023-01-07T06:15:03.026Z,100301.09
2023-01-07T06:17:30.791Z,100307.22
2023-01-07T06:19:58.482Z,100310.03
2023-01-07T06:22:26.258Z,100303.69
2023-01-07T06:24:54.043Z,100309.31
2023-01-07T06:27:23.185Z,100300.25
2023-01-07T06:29:50.920Z,100301.00
2023-01-07T06:32:18.662Z,100301.78
2023-01-07T06:34:46.474Z,100296.13
2023-01-07T06:37:14.958Z,100298.69
2023-01-07T06:39:42.776Z,100299.47
2023-01-07T06:42:10.548Z,100286.09
2023-01-07T06:44:39.762Z,100289.88
2023-01-07T06:47:07.454Z,100286.00
2023-01-07T06:49:35.234Z,100285.91
2023-01-07T06:52:03.009Z,100288.94
2023-01-07T06:54:30.793Z,100284.16
2023-01-07T06:56:58.509Z,100291.00
2023-01-07T06:59:26.341Z,100264.56
2023-01-07T07:01:55.564Z,100266.25
2023-01-07T07:04:23.391Z,100267.97
2023-01-07T07:06:51.214Z,100257.41
2023-01-07T07:09:19.018Z,100251.91
2023-01-07T07:11:46.763Z,100249.19
2023-01-07T07:14:14.625Z,100242.34
2023-01-07T07:16:42.519Z,100245.56
2023-01-07T07:19:13.798Z,100235.63
2023-01-07T07:21:41.588Z,100234.00
2023-01-07T07:24:09.540Z,100245.63
2023-01-07T07:26:37.286Z,100236.09
2023-01-07T07:29:05.077Z,100234.59
2023-01-07T07:31:32.974Z,100228.66
2023-01-07T07:34:00.801Z,100226.28
2023-01-07T07:36:29.857Z,100227.88
2023-01-07T07:38:57.938Z,100228.06
2023-01-07T07:41:25.767Z,100219.63
2023-01-07T07:43:53.559Z,100219.97
2023-01-07T07:46:21.690Z,100211.03
2023-01-07T07:48:49.863Z,100214.47
2023-01-07T07:51:17.788Z,100202.41
2023-01-07T07:53:46.968Z,100196.59
2023-01-07T07:56:14.788Z,100199.00
2023-01-07T07:58:43.325Z,100195.41
2023-01-07T08:01:11.239Z,100195.94
2023-01-07T08:03:39.131Z,100183.25
2023-01-07T08:06:07.950Z,100176.75
2023-01-07T08:08:36.158Z,100172.84
2023-01-07T08:11:05.823Z,100176.81
2023-01-07T08:13:33.601Z,100170.34
2023-01-07T08:16:01.548Z,100158.47
2023-01-07T08:18:29.412Z,100166.13
2023-01-07T08:20:57.150Z,100169.44
2023-01-07T08:23:27.732Z,100156.25
2023-01-07T08:25:55.548Z,100152.13
2023-01-07T08:28:24.674Z,100145.69
2023-01-07T08:30:52.570Z,100147.88
2023-01-07T08:33:20.436Z,100161.34
2023-01-07T08:35:48.187Z,100140.63
2023-01-07T08:38:16.036Z,100147.88
2023-01-07T08:40:44.365Z,100142.84
2023-01-07T08:43:12.290Z,100145.44
2023-01-07T08:45:41.412Z,100140.63
2023-01-07T08:48:09.234Z,100129.28
2023-01-07T08:50:36.974Z,100133.78
2023-01-07T08:53:04.782Z,100122.22
2023-01-07T08:55:32.658Z,100129.41
2023-01-07T08:58:00.585Z,100133.97
2023-01-07T09:00:28.918Z,100131.59
2023-01-07T09:02:58.069Z,100134.91
2023-01-07T09:05:25.975Z,100116.97
2023-01-07T09:07:54.404Z,100115.66
2023-01-07T09:10:22.291Z,100102.97
2023-01-07T09:12:50.048Z,100100.88
2023-01-07T09:15:17.990Z,100105.44
2023-01-07T09:17:45.785Z,100098.19
2023-01-07T09:20:14.969Z,100079.78
2023-01-07T09:22:42.709Z,100078.44
2023-01-07T09:25:11.207Z,100080.53
2023-01-07T09:27:39.528Z,100073.28
2023-01-07T09:30:09.474Z,100087.97
2023-01-07T09:32:37.360Z,100078.44
2023-01-07T09:35:05.875Z,100079.78
2023-01-07T09:37:34.998Z,100091.78
2023-01-07T09:40:02.834Z,100072.69
2023-01-07T09:42:41.493Z,100080.81
2023-01-07T09:45:16.520Z,100080.13
2023-01-07T09:47:47.064Z,100065.06
2023-01-07T09:50:29.035Z,100076.31
2023-01-07T09:53:04.030Z,100080.41
2023-01-07T09:55:35.927Z,100068.53
2023-01-07T09:58:04.419Z,100073.59
2023-01-07T10:00:35.766Z,100081.47
2023-01-07T10:03:18.802Z,100087.31
2023-01-07T10:05:57.477Z,100065.41
2023-01-07T10:08:40.144Z,100057.06
2023-01-07T10:11:18.460Z,100058.56
2023-01-07T10:13:59.552Z,100064.47
2023-01-07T10:16:37.731Z,100066.94
2023-01-07T10:19:11.903Z,100068.53
2023-01-07T10:21:44.194Z,100045.47
2023-01-07T10:24:21.784Z,100063.00
2023-01-07T10:26:53.590Z,100053.13
2023-01-07T10:29:27.625Z,100053.56
2023-01-07T10:31:58.002Z,100036.75
2023-01-07T10:34:32.300Z,100046.28
2023-01-07T10:37:07.023Z,100053.69
2023-01-07T10:39:46.910Z,100049.16
2023-01-07T10:42:25.274Z,100049.56
2023-01-07T10:45:31.081Z,100042.09
2023-01-07T10:48:24.535Z,100016.84
2023-01-07T10:51:09.809Z,100024.19
2023-01-07T10:53:49.398Z,100018.75
2023-01-07T10:56:24.895Z,100007.72
2023-01-07T10:58:53.083Z,100016.28
2023-01-07T11:01:25.887Z,100015.75
2023-01-07T11:03:56.314Z,100015.34
2023-01-07T11:06:34.360Z,100006.97
2023-01-07T11:09:05.840Z,100001.41
2023-01-07T11:11:35.138Z,99991.53
2023-01-07T11:14:05.590Z,99989.66
2023-01-07T11:16:39.588Z,99985.78
2023-01-07T11:19:09.524Z,99975.63
2023-01-07T11:21:42.639Z,99979.44
2023-01-07T11:24:33.346Z,99969.06
2023-01-07T11:27:05.328Z,99983.53
2023-01-07T11:29:40.013Z,99989.25
2023-01-07T11:32:20.111Z,99964.78
2023-01-07T11:34:53.659Z,99969.75
2023-01-07T11:37:33.388Z,99950.75
2023-01-07T11:40:03.411Z,99951.09
2023-01-07T11:42:41.854Z,99961.06
2023-01-07T11:45:14.604Z,99957.34
2023-01-07T11:47:48.651Z,99963.94
2023-01-07T11:50:24.707Z,99958.38
2023-01-07T11:53:00.672Z,99948.22
2023-01-07T11:55:29.367Z,99964.78
2023-01-07T11:58:29.765Z,99962.19
2023-01-07T12:00:47.338Z,99977.00
2023-01-07T12:03:15.349Z,99952.34
2023-01-07T12:05:45.432Z,99952.06
2023-01-07T12:08:21.925Z,99938.47
2023-01-07T12:10:56.403Z,99946.38
2023-01-07T12:13:28.300Z,99921.78
2023-01-07T12:15:59.896Z,99925.09
2023-01-07T12:18:56.151Z,99933.19
2023-01-07T12:21:34.798Z,99933.19
2023-01-07T12:24:38.186Z,99923.19
2023-01-07T12:27:19.049Z,99917.13
2023-01-07T12:30:02.368Z,99921.97
2023-01-07T12:32:44.653Z,99906.78
2023-01-07T12:35:18.918Z,99901.84
2023-01-07T12:37:53.491Z,99899.34
2023-01-07T12:40:34.041Z,99904.91
2023-01-07T12:43:09.699Z,99893.84
2023-01-07T12:45:44.189Z,99908.00
2023-01-07T12:48:21.093Z,99909.72
2023-01-07T12:50:51.995Z,99905.03
2023-01-07T12:53:29.099Z,99897.53
2023-01-07T12:56:01.568Z,99897.63
2023-01-07T12:58:40.967Z,99906.78
2023-01-07T13:01:20.199Z,99899.28
2023-01-07T13:03:55.491Z,99903.22
2023-01-07T13:06:38.309Z,99880.63
2023-01-07T13:09:17.104Z,99883.81
2023-01-07T13:12:06.490Z,99877.91
2023-01-07T13:14:39.364Z,99854.94
2023-01-07T13:17:16.548Z,99875.31
2023-01-07T13:19:44.608Z,99877.06
2023-01-07T13:22:18.304Z,99876.00
2023-01-07T13:24:57.005Z,99876.75
2023-01-07T13:27:35.335Z,99880.19
2023-01-07T13:30:19.506Z,99870.41
2023-01-07T13:33:12.873Z,99880.66
2023-01-07T13:36:15.309Z,99890.59
2023-01-07T13:38:54.192Z,99870.31
2023-01-07T13:41:40.105Z,99873.72
2023-01-07T13:44:23.498Z,99880.91
2023-01-07T13:46:51.732Z,99885.69
2023-01-07T13:49:30.067Z,99876.69
2023-01-07T13:52:12.226Z,99875.66
2023-01-07T13:55:03.031Z,99873.81
2023-01-07T13:57:44.444Z,99874.72
2023-01-07T14:00:42.163Z,99867.06
2023-01-07T14:03:43.805Z,99875.94
2023-01-07T14:06:47.609Z,99868.03
2023-01-07T14:09:38.263Z,99870.47
2023-01-07T14:12:24.729Z,99865.34
2023-01-07T14:15:08.395Z,99862.44
2023-01-07T14:17:41.341Z,99869.97
2023-01-07T14:20:19.445Z,99856.09
2023-01-07T14:22:58.147Z,99864.81
2023-01-07T14:25:47.328Z,99859.94
2023-01-07T14:28:32.605Z,99861.03
2023-01-07T14:31:01.045Z,99855.94
2023-01-07T14:33:34.069Z,99846.84
2023-01-07T14:36:04.435Z,99842.13
2023-01-07T14:38:58.677Z,99846.91
2023-01-07T14:41:27.141Z,99833.19
2023-01-07T14:44:29.190Z,99826.34
2023-01-07T14:46:57.265Z,99838.28
2023-01-07T14:50:02.233Z,99830.72
2023-01-07T14:53:05.351Z,99837.06
2023-01-07T14:55:47.282Z,99838.13
2023-01-07T14:58:30.788Z,99842.38
2023-01-07T15:01:26.082Z,99850.19
2023-01-07T15:04:05.937Z,99856.00
2023-01-07T15:06:36.354Z,99858.69
2023-01-07T15:09:26.978Z,99866.38
2023-01-07T15:12:15.168Z,99863.78
2023-01-07T15:15:04.041Z,99878.13
2023-01-07T15:17:32.463Z,99871.69
2023-01-07T15:20:01.142Z,99882.72
2023-01-07T15:23:04.426Z,99884.28
2023-01-07T15:25:45.259Z,99892.31
2023-01-07T15:28:20.831Z,99889.34
2023-01-07T15:30:57.104Z,99899.22
2023-01-07T15:33:42.032Z,99871.53
2023-01-07T15:36:13.767Z,99885.63
2023-01-07T15:38:45.900Z,99876.00
2023-01-07T15:41:30.491Z,99875.34
2023-01-07T15:44:02.504Z,99870.75
2023-01-07T15:46:32.507Z,99881.31
2023-01-07T15:49:27.851Z,99881.00
2023-01-07T15:51:57.182Z,99885.22
2023-01-07T15:54:31.761Z,99881.47
2023-01-07T15:57:03.929Z,99884.88
2023-01-07T15:59:36.332Z,99891.63
2023-01-07T16:02:15.812Z,99897.66
2023-01-07T16:04:45.254Z,99888.34
2023-01-07T16:07:22.473Z,99897.53
2023-01-07T16:09:50.779Z,99894.41
2023-01-07T16:12:28.847Z,99894.03
2023-01-07T16:14:58.499Z,99900.25
2023-01-07T16:17:27.292Z,99882.00
2023-01-07T16:20:10.953Z,99878.28
2023-01-07T16:22:40.578Z,99880.00
2023-01-07T16:25:15.093Z,99875.19
2023-01-07T16:27:43.099Z,99869.34
2023-01-07T16:30:16.250Z,99861.41
2023-01-07T16:32:45.378Z,99870.06
2023-01-07T16:35:20.075Z,99873.06
2023-01-07T16:37:49.021Z,99888.25
2023-01-07T16:40:23.825Z,99883.13
2023-01-07T16:42:52.485Z,99887.31
2023-01-07T16:45:28.187Z,99887.59
2023-01-07T16:48:01.466Z,99891.78
2023-01-07T16:50:38.661Z,99893.91
2023-01-07T16:53:22.673Z,99895.44
2023-01-07T16:55:53.053Z,99897.03
2023-01-07T16:58:29.618Z,99903.97
2023-01-07T17:01:01.286Z,99902.72
2023-01-07T17:03:30.992Z,99899.06
2023-01-07T17:06:02.562Z,99896.59
2023-01-07T17:08:31.636Z,99903.91
2023-01-07T17:11:05.880Z,99907.41
2023-01-07T17:13:36.326Z,99907.19
2023-01-07T17:16:24.828Z,99909.75
2023-01-07T17:18:52.739Z,99915.75
2023-01-07T17:21:39.742Z,99911.94
2023-01-07T17:24:44.677Z,99918.44
2023-01-07T17:27:20.446Z,99909.13
2023-01-07T17:29:49.896Z,99913.22
2023-01-07T17:32:19.103Z,99914.22
2023-01-07T17:34:46.858Z,99893.91
2023-01-07T17:37:16.130Z,99905.28
2023-01-07T17:39:44.638Z,99904.50
2023-01-07T17:42:38.501Z,99916.38
2023-01-07T17:45:07.608Z,99908.56
2023-01-07T17:47:36.698Z,99916.50
2023-01-07T17:50:04.839Z,99905.69
2023-01-07T17:52:32.618Z,99911.69
2023-01-07T17:55:00.417Z,99910.31
2023-01-07T17:57:28.183Z,99919.56
2023-01-07T17:59:55.926Z,99914.50
2023-01-07T18:02:29.461Z,99924.88
2023-01-07T18:04:58.730Z,99931.41
2023-01-07T18:07:26.490Z,99938.50
2023-01-07T18:09:54.234Z,99945.47
2023-01-07T18:12:30.257Z,99937.19
2023-01-07T18:14:58.930Z,99953.63
2023-01-07T18:17:27.640Z,99962.28
2023-01-07T18:19:55.929Z,99951.22
2023-01-07T18:22:25.958Z,99956.56
2023-01-07T18:24:53.623Z,99967.59
2023-01-07T18:27:21.463Z,99973.38
2023-01-07T18:29:49.359Z,99964.91
2023-01-07T18:32:17.774Z,99949.19
2023-01-07T18:34:45.554Z,99952.75
2023-01-07T18:37:14.962Z,99959.16
2023-01-07T18:39:44.170Z,99958.47
2023-01-07T18:42:12.859Z,99955.09
2023-01-07T18:44:40.718Z,99961.91
2023-01-07T18:47:08.485Z,99968.19
2023-01-07T18:49:36.226Z,99967.34
2023-01-07T18:52:03.988Z,99966.84
2023-01-07T18:54:33.400Z,99976.84
2023-01-07T18:57:02.533Z,99986.06
2023-01-07T18:59:30.299Z,99990.25
2023-01-07T19:02:00.339Z,99987.31
2023-01-07T19:04:28.477Z,99990.28
2023-01-07T19:06:56.834Z,99992.09
2023-01-07T19:09:24.673Z,99984.78
2023-01-07T19:11:52.455Z,99987.44
2023-01-07T19:14:22.510Z,99984.00
2023-01-07T19:16:50.711Z,99989.81
2023-01-07T19:19:18.531Z,99998.28
2023-01-07T19:21:48.074Z,99996.34
2023-01-07T19:24:19.353Z,99994.13
2023-01-07T19:26:48.384Z,99990.78
2023-01-07T19:29:16.531Z,99989.66
2023-01-07T19:31:45.919Z,99990.94
2023-01-07T19:34:14.205Z,100020.72
2023-01-07T19:36:46.640Z,99993.56
2023-01-07T19:39:15.790Z,99995.56
2023-01-07T19:41:43.848Z,100009.34
2023-01-07T19:44:12.871Z,100007.38
2023-01-07T19:46:42.477Z,100018.22
2023-01-07T19:49:13.411Z,100004.72
2023-01-07T19:51:43.034Z,100024.25
2023-01-07T19:54:14.473Z,100022.00
2023-01-07T19:56:43.570Z,100014.38
2023-01-07T19:59:11.623Z,100021.44
2023-01-07T20:01:39.814Z,100021.22
2023-01-07T20:04:09.123Z,100031.69
2023-01-07T20:06:39.801Z,100020.59
2023-01-07T20:09:10.758Z,100028.88
2023-01-07T20:11:39.376Z,100024.09
2023-01-07T20:14:08.233Z,100021.28
2023-01-07T20:16:38.924Z,100031.16
2023-01-07T20:19:07.528Z,100031.16
2023-01-07T20:21:35.316Z,100030.28
2023-01-07T20:24:06.218Z,100034.59
2023-01-07T20:26:34.999Z,100027.16
2023-01-07T20:29:02.960Z,100035.72
2023-01-07T20:31:32.124Z,100027.28
2023-01-07T20:34:00.557Z,100029.63
2023-01-07T20:36:30.114Z,100032.59
2023-01-07T20:38:58.243Z,100032.84
2023-01-07T20:41:28.413Z,100032.94
2023-01-07T20:43:58.188Z,100025.06
2023-01-07T20:46:27.926Z,100021.53
2023-01-07T20:48:56.049Z,100018.84
2023-01-07T20:51:24.180Z,100014.78
2023-01-07T20:53:52.212Z,100011.84
2023-01-07T20:56:22.020Z,100018.91
2023-01-07T20:58:52.289Z,100032.06
2023-01-07T21:01:22.179Z,100025.38
2023-01-07T21:03:50.768Z,100004.66
2023-01-07T21:06:20.649Z,99998.81
2023-01-07T21:08:49.656Z,100016.09
2023-01-07T21:11:19.693Z,100013.03
2023-01-07T21:13:48.195Z,99996.44
2023-01-07T21:16:17.778Z,99982.91
2023-01-07T21:18:46.976Z,99984.50
2023-01-07T21:21:16.856Z,99983.69
2023-01-07T21:23:46.735Z,99986.41
2023-01-07T21:26:15.253Z,99990.47
2023-01-07T21:28:44.440Z,100004.16
2023-01-07T21:31:14.645Z,99990.69
2023-01-07T21:33:44.904Z,99996.84
2023-01-07T21:36:16.373Z,100008.03
2023-01-07T21:38:45.332Z,100016.50
2023-01-07T21:41:15.147Z,100000.94
2023-01-07T21:43:43.606Z,99990.19
2023-01-07T21:46:11.420Z,99978.78
2023-01-07T21:48:41.263Z,99989.41
2023-01-07T21:51:14.029Z,99986.91
2023-01-07T21:53:41.800Z,99992.47
2023-01-07T21:56:11.709Z,99986.25
2023-01-07T21:58:39.864Z,99987.31
2023-01-07T22:01:08.686Z,99986.69
2023-01-07T22:03:37.722Z,99989.44
2023-01-07T22:06:08.877Z,99989.16
2023-01-07T22:08:37.940Z,99988.97
2023-01-07T22:11:05.938Z,99994.31
2023-01-07T22:13:33.941Z,99994.84
2023-01-07T22:16:01.737Z,99985.91
2023-01-07T22:18:29.532Z,99987.25
2023-01-07T22:20:57.334Z,99973.63
2023-01-07T22:23:25.131Z,99973.84
2023-01-07T22:25:54.233Z,99978.16
2023-01-07T22:28:24.678Z,99979.44
2023-01-07T22:30:57.636Z,99987.25
2023-01-07T22:33:25.500Z,99978.44
2023-01-07T22:35:56.321Z,99981.06
2023-01-07T22:38:27.071Z,99976.16
2023-01-07T22:40:56.931Z,99974.28
2023-01-07T22:43:26.435Z,99969.72
2023-01-07T22:45:57.486Z,99966.88
2023-01-07T22:48:28.560Z,99966.97
2023-01-07T22:51:01.783Z,99964.38
2023-01-07T22:53:30.833Z,99969.34
2023-01-07T22:56:00.919Z,99967.72
2023-01-07T22:58:28.796Z,99957.72
2023-01-07T23:01:14.199Z,99961.81
2023-01-07T23:03:43.690Z,99960.78
2023-01-07T23:06:13.541Z,99960.84
2023-01-07T23:08:42.679Z,99956.72
2023-01-07T23:11:32.287Z,99954.78
2023-01-07T23:14:00.467Z,99949.22
2023-01-07T23:16:28.405Z,99943.31
2023-01-07T23:18:56.219Z,99944.53
2023-01-07T23:21:23.950Z,99942.09
2023-01-07T23:23:51.704Z,99937.06
2023-01-07T23:26:20.812Z,99933.47
2023-01-07T23:28:48.591Z,99940.84
2023-01-07T23:31:16.422Z,99932.25
2023-01-07T23:33:44.218Z,99932.34
2023-01-07T23:36:12.259Z,99938.47
2023-01-07T23:38:40.194Z,99942.00
2023-01-07T23:41:10.008Z,99953.09
2023-01-07T23:43:39.343Z,99944.25
2023-01-07T23:46:08.786Z,99944.03
2023-01-07T23:48:38.864Z,99955.16
2023-01-07T23:51:08.211Z,99948.06
2023-01-07T23:53:36.224Z,99947.56
2023-01-07T23:56:05.028Z,99943.38
2023-01-07T23:58:33.358Z,99941.72
